Terminal Aerodrome Forecast
Issued by NWS

Home | Current Version | Previous Version | Graphics & Text | Print | Product List | Glossary On
Versions: 1 2 3 4 5 6 7 8 9 10 11 12 13 14 15 16 17 18
000
FTUS43 KABR 232123 AAC
TAFMBG
TAF AMD
KMBG 232123Z 2321/2418 16013KT P6SM FEW035 SCT150
     FM232300 17015KT P6SM VCTS SCT200CB
     FM240200 16010KT P6SM SCT250=

USA.gov is the U.S. government's official web portal to all federal, state and local government web resources and services.